sensor_id;sensor_type;location;lat;lon;timestamp;pressure;altitude;pressure_sealevel;temperature;humidity
24762;BME280;12865;51.934;10.330;2023-05-02T00:01:56;99153.25;;;12.23;100.00
24762;BME280;12865;51.934;10.330;2023-05-02T00:04:42;99150.88;;;12.20;100.00
24762;BME280;12865;51.934;10.330;2023-05-02T00:07:27;99157.25;;;12.19;100.00
24762;BME280;12865;51.934;10.330;2023-05-02T00:10:13;99154.84;;;12.16;100.00
24762;BME280;12865;51.934;10.330;2023-05-02T00:12:59;99157.44;;;12.08;100.00
24762;BME280;12865;51.934;10.330;2023-05-02T00:15:44;99147.66;;;11.99;100.00
24762;BME280;12865;51.934;10.330;2023-05-02T00:18:30;99148.66;;;11.98;100.00
24762;BME280;12865;51.934;10.330;2023-05-02T00:21:17;99155.00;;;11.97;100.00
24762;BME280;12865;51.934;10.330;2023-05-02T00:24:03;99158.88;;;12.02;100.00
24762;BME280;12865;51.934;10.330;2023-05-02T00:26:48;99160.88;;;12.00;100.00
24762;BME280;12865;51.934;10.330;2023-05-02T00:29:34;99159.72;;;12.03;100.00
24762;BME280;12865;51.934;10.330;2023-05-02T00:32:20;99159.59;;;12.04;100.00
24762;BME280;12865;51.934;10.330;2023-05-02T00:35:06;99160.25;;;12.06;100.00
24762;BME280;12865;51.934;10.330;2023-05-02T00:37:51;99163.78;;;12.07;100.00
24762;BME280;12865;51.934;10.330;2023-05-02T00:40:49;99169.28;;;12.05;100.00
24762;BME280;12865;51.934;10.330;2023-05-02T00:43:36;99161.84;;;11.99;100.00
24762;BME280;12865;51.934;10.330;2023-05-02T00:46:24;99166.91;;;12.02;100.00
24762;BME280;12865;51.934;10.330;2023-05-02T00:49:09;99166.53;;;11.97;100.00
24762;BME280;12865;51.934;10.330;2023-05-02T00:51:57;99165.13;;;11.93;100.00
24762;BME280;12865;51.934;10.330;2023-05-02T00:54:43;99171.53;;;11.83;100.00
24762;BME280;12865;51.934;10.330;2023-05-02T00:57:28;99172.66;;;11.80;100.00
24762;BME280;12865;51.934;10.330;2023-05-02T01:00:14;99161.16;;;11.70;100.00
24762;BME280;12865;51.934;10.330;2023-05-02T01:09:25;99174.81;;;11.67;100.00
24762;BME280;12865;51.934;10.330;2023-05-02T01:12:31;99162.31;;;11.58;100.00
24762;BME280;12865;51.934;10.330;2023-05-02T01:15:20;99165.31;;;11.55;100.00
24762;BME280;12865;51.934;10.330;2023-05-02T01:18:08;99171.31;;;11.57;100.00
24762;BME280;12865;51.934;10.330;2023-05-02T01:20:58;99174.31;;;11.44;100.00
24762;BME280;12865;51.934;10.330;2023-05-02T01:26:57;99173.47;;;11.53;100.00
24762;BME280;12865;51.934;10.330;2023-05-02T01:29:44;99177.00;;;11.44;100.00
24762;BME280;12865;51.934;10.330;2023-05-02T01:32:33;99174.06;;;11.37;100.00
24762;BME280;12865;51.934;10.330;2023-05-02T01:35:22;99169.31;;;11.31;100.00
24762;BME280;12865;51.934;10.330;2023-05-02T01:38:08;99185.91;;;11.35;100.00
24762;BME280;12865;51.934;10.330;2023-05-02T01:40:57;99174.38;;;11.34;100.00
24762;BME280;12865;51.934;10.330;2023-05-02T01:43:50;99181.38;;;11.35;100.00
24762;BME280;12865;51.934;10.330;2023-05-02T01:46:39;99180.13;;;11.39;100.00
24762;BME280;12865;51.934;10.330;2023-05-02T01:49:28;99189.09;;;11.38;100.00
24762;BME280;12865;51.934;10.330;2023-05-02T01:52:14;99183.06;;;11.36;100.00
24762;BME280;12865;51.934;10.330;2023-05-02T01:55:01;99186.56;;;11.37;100.00
24762;BME280;12865;51.934;10.330;2023-05-02T01:57:51;99186.16;;;11.41;100.00
24762;BME280;12865;51.934;10.330;2023-05-02T02:00:39;99187.66;;;11.44;100.00
24762;BME280;12865;51.934;10.330;2023-05-02T02:03:27;99184.88;;;11.46;100.00
24762;BME280;12865;51.934;10.330;2023-05-02T02:06:14;99190.06;;;11.47;100.00
24762;BME280;12865;51.934;10.330;2023-05-02T02:09:00;99188.25;;;11.38;100.00
24762;BME280;12865;51.934;10.330;2023-05-02T02:11:51;99194.72;;;11.35;100.00
24762;BME280;12865;51.934;10.330;2023-05-02T02:14:41;99188.25;;;11.38;100.00
24762;BME280;12865;51.934;10.330;2023-05-02T02:17:31;99190.66;;;11.31;100.00
24762;BME280;12865;51.934;10.330;2023-05-02T02:20:21;99193.47;;;11.30;100.00
24762;BME280;12865;51.934;10.330;2023-05-02T02:23:07;99193.78;;;11.27;100.00
24762;BME280;12865;51.934;10.330;2023-05-02T02:25:54;99202.09;;;11.14;100.00
24762;BME280;12865;51.934;10.330;2023-05-02T02:28:41;99206.47;;;10.96;100.00
24762;BME280;12865;51.934;10.330;2023-05-02T02:31:34;99202.69;;;10.98;100.00
24762;BME280;12865;51.934;10.330;2023-05-02T02:34:20;99206.47;;;10.96;100.00
24762;BME280;12865;51.934;10.330;2023-05-02T02:37:13;99206.22;;;10.89;100.00
24762;BME280;12865;51.934;10.330;2023-05-02T02:40:22;99210.69;;;10.98;100.00
24762;BME280;12865;51.934;10.330;2023-05-02T02:43:18;99216.88;;;10.99;100.00
24762;BME280;12865;51.934;10.330;2023-05-02T02:49:31;99217.59;;;10.91;100.00
24762;BME280;12865;51.934;10.330;2023-05-02T02:52:24;99218.16;;;10.85;100.00
24762;BME280;12865;51.934;10.330;2023-05-02T02:55:22;99223.19;;;10.88;100.00
24762;BME280;12865;51.934;10.330;2023-05-02T02:58:38;99228.53;;;10.88;100.00
24762;BME280;12865;51.934;10.330;2023-05-02T03:01:30;99243.09;;;10.94;100.00
24762;BME280;12865;51.934;10.330;2023-05-02T03:04:17;99244.41;;;10.99;100.00
24762;BME280;12865;51.934;10.330;2023-05-02T03:07:05;99252.22;;;11.01;100.00
24762;BME280;12865;51.934;10.330;2023-05-02T03:09:51;99247.59;;;11.03;100.00
24762;BME280;12865;51.934;10.330;2023-05-02T03:12:36;99250.84;;;11.07;100.00
24762;BME280;12865;51.934;10.330;2023-05-02T03:18:39;99258.25;;;11.22;100.00
24762;BME280;12865;51.934;10.330;2023-05-02T03:21:25;99265.84;;;11.17;100.00
24762;BME280;12865;51.934;10.330;2023-05-02T03:24:10;99265.56;;;11.11;100.00
24762;BME280;12865;51.934;10.330;2023-05-02T03:26:57;99266.28;;;11.13;100.00
24762;BME280;12865;51.934;10.330;2023-05-02T03:29:43;99261.63;;;11.15;100.00
24762;BME280;12865;51.934;10.330;2023-05-02T03:32:29;99262.47;;;11.25;100.00
24762;BME280;12865;51.934;10.330;2023-05-02T03:35:15;99272.00;;;11.37;100.00
24762;BME280;12865;51.934;10.330;2023-05-02T03:38:01;99269.91;;;11.31;100.00
24762;BME280;12865;51.934;10.330;2023-05-02T03:40:46;99267.81;;;11.34;100.00
24762;BME280;12865;51.934;10.330;2023-05-02T03:43:32;99270.19;;;11.28;100.00
24762;BME280;12865;51.934;10.330;2023-05-02T03:46:18;99273.41;;;11.31;100.00
24762;BME280;12865;51.934;10.330;2023-05-02T03:49:03;99276.22;;;11.30;100.00
24762;BME280;12865;51.934;10.330;2023-05-02T03:51:49;99283.09;;;11.23;100.00
24762;BME280;12865;51.934;10.330;2023-05-02T03:54:35;99287.47;;;11.24;100.00
24762;BME280;12865;51.934;10.330;2023-05-02T03:57:20;99291.41;;;11.20;100.00
24762;BME280;12865;51.934;10.330;2023-05-02T04:00:07;99289.41;;;11.22;100.00
24762;BME280;12865;51.934;10.330;2023-05-02T04:02:52;99295.91;;;11.19;100.00
24762;BME280;12865;51.934;10.330;2023-05-02T04:05:38;99302.22;;;11.18;100.00
24762;BME280;12865;51.934;10.330;2023-05-02T04:08:24;99305.16;;;11.25;100.00
24762;BME280;12865;51.934;10.330;2023-05-02T04:11:09;99311.75;;;11.30;100.00
24762;BME280;12865;51.934;10.330;2023-05-02T04:13:55;99313.59;;;11.20;100.00
24762;BME280;12865;51.934;10.330;2023-05-02T04:16:40;99319.50;;;11.24;100.00
24762;BME280;12865;51.934;10.330;2023-05-02T04:19:26;99309.13;;;11.21;100.00
24762;BME280;12865;51.934;10.330;2023-05-02T04:22:12;99323.72;;;11.17;100.00
24762;BME280;12865;51.934;10.330;2023-05-02T04:24:58;99327.34;;;11.16;100.00
24762;BME280;12865;51.934;10.330;2023-05-02T04:27:43;99319.91;;;11.10;100.00
24762;BME280;12865;51.934;10.330;2023-05-02T04:30:29;99328.22;;;11.07;100.00
24762;BME280;12865;51.934;10.330;2023-05-02T04:33:16;99331.56;;;11.18;100.00
24762;BME280;12865;51.934;10.330;2023-05-02T04:36:03;99317.97;;;11.21;100.00
24762;BME280;12865;51.934;10.330;2023-05-02T04:38:48;99331.28;;;11.12;100.00
24762;BME280;12865;51.934;10.330;2023-05-02T04:41:34;99334.69;;;11.14;100.00
24762;BME280;12865;51.934;10.330;2023-05-02T04:44:20;99337.91;;;11.17;100.00
24762;BME280;12865;51.934;10.330;2023-05-02T04:47:05;99356.03;;;11.14;100.00
24762;BME280;12865;51.934;10.330;2023-05-02T04:49:51;99351.78;;;10.92;100.00
24762;BME280;12865;51.934;10.330;2023-05-02T04:52:37;99360.22;;;10.97;100.00
24762;BME280;12865;51.934;10.330;2023-05-02T04:55:22;99361.06;;;10.97;100.00
24762;BME280;12865;51.934;10.330;2023-05-02T04:58:08;99368.34;;;10.95;100.00
24762;BME280;12865;51.934;10.330;2023-05-02T05:00:54;99371.28;;;10.83;100.00
24762;BME280;12865;51.934;10.330;2023-05-02T05:03:39;99375.34;;;10.87;100.00
24762;BME280;12865;51.934;10.330;2023-05-02T05:06:25;99384.34;;;10.86;100.00
24762;BME280;12865;51.934;10.330;2023-05-02T05:09:11;99383.50;;;10.85;100.00
24762;BME280;12865;51.934;10.330;2023-05-02T05:11:56;99385.63;;;11.01;100.00
24762;BME280;12865;51.934;10.330;2023-05-02T05:14:42;99384.94;;;10.99;100.00
24762;BME280;12865;51.934;10.330;2023-05-02T05:17:28;99387.31;;;11.02;100.00
24762;BME280;12865;51.934;10.330;2023-05-02T05:20:14;99402.06;;;10.96;100.00
24762;BME280;12865;51.934;10.330;2023-05-02T05:23:00;99402.91;;;10.97;100.00
24762;BME280;12865;51.934;10.330;2023-05-02T05:25:45;99408.94;;;10.99;100.00
24762;BME280;12865;51.934;10.330;2023-05-02T05:28:31;99408.25;;;11.07;100.00
24762;BME280;12865;51.934;10.330;2023-05-02T05:31:17;99418.06;;;10.96;100.00
24762;BME280;12865;51.934;10.330;2023-05-02T05:34:02;99421.44;;;11.08;100.00
24762;BME280;12865;51.934;10.330;2023-05-02T05:36:48;99421.81;;;10.94;100.00
24762;BME280;12865;51.934;10.330;2023-05-02T05:39:34;99420.84;;;10.95;100.00
24762;BME280;12865;51.934;10.330;2023-05-02T05:42:20;99415.38;;;10.96;100.00
24762;BME280;12865;51.934;10.330;2023-05-02T05:45:06;99427.88;;;10.96;100.00
24762;BME280;12865;51.934;10.330;2023-05-02T05:47:53;99439.97;;;11.00;100.00
24762;BME280;12865;51.934;10.330;2023-05-02T05:50:39;99435.63;;;10.99;100.00
24762;BME280;12865;51.934;10.330;2023-05-02T05:53:25;99437.53;;;10.87;100.00
24762;BME280;12865;51.934;10.330;2023-05-02T05:56:11;99438.50;;;10.86;100.00
24762;BME280;12865;51.934;10.330;2023-05-02T05:58:57;99441.03;;;10.78;100.00
24762;BME280;12865;51.934;10.330;2023-05-02T06:01:43;99441.91;;;10.88;100.00
24762;BME280;12865;51.934;10.330;2023-05-02T06:04:29;99446.47;;;11.07;100.00
24762;BME280;12865;51.934;10.330;2023-05-02T06:07:14;99448.06;;;10.89;100.00
24762;BME280;12865;51.934;10.330;2023-05-02T06:10:00;99450.66;;;11.10;100.00
24762;BME280;12865;51.934;10.330;2023-05-02T06:12:46;99448.41;;;11.05;100.00
24762;BME280;12865;51.934;10.330;2023-05-02T06:15:34;99452.47;;;10.99;100.00
24762;BME280;12865;51.934;10.330;2023-05-02T06:18:20;99459.03;;;10.95;100.00
24762;BME280;12865;51.934;10.330;2023-05-02T06:21:06;99456.28;;;11.07;100.00
24762;BME280;12865;51.934;10.330;2023-05-02T06:23:52;99472.00;;;11.10;100.00
24762;BME280;12865;51.934;10.330;2023-05-02T06:26:38;99468.47;;;10.99;100.00
24762;BME280;12865;51.934;10.330;2023-05-02T06:29:23;99463.88;;;11.11;100.00
24762;BME280;12865;51.934;10.330;2023-05-02T06:32:09;99473.13;;;11.07;100.00
24762;BME280;12865;51.934;10.330;2023-05-02T06:34:55;99486.78;;;11.14;100.00
24762;BME280;12865;51.934;10.330;2023-05-02T06:37:40;99487.88;;;11.11;100.00
24762;BME280;12865;51.934;10.330;2023-05-02T06:40:26;99490.69;;;11.10;100.00
24762;BME280;12865;51.934;10.330;2023-05-02T06:43:12;99495.28;;;10.98;100.00
24762;BME280;12865;51.934;10.330;2023-05-02T06:45:59;99503.00;;;10.91;100.00
24762;BME280;12865;51.934;10.330;2023-05-02T06:48:45;99508.31;;;10.91;100.00
24762;BME280;12865;51.934;10.330;2023-05-02T06:51:30;99504.53;;;10.94;100.00
24762;BME280;12865;51.934;10.330;2023-05-02T06:54:16;99509.00;;;10.93;100.00
24762;BME280;12865;51.934;10.330;2023-05-02T06:57:02;99515.06;;;10.95;100.00
24762;BME280;12865;51.934;10.330;2023-05-02T06:59:48;99524.94;;;11.05;100.00
24762;BME280;12865;51.934;10.330;2023-05-02T07:02:34;99523.66;;;10.99;100.00
24762;BME280;12865;51.934;10.330;2023-05-02T07:05:19;99525.19;;;11.01;100.00
24762;BME280;12865;51.934;10.330;2023-05-02T07:08:05;99531.78;;;10.97;100.00
24762;BME280;12865;51.934;10.330;2023-05-02T07:10:51;99534.75;;;11.04;100.00
24762;BME280;12865;51.934;10.330;2023-05-02T07:13:37;99539.63;;;10.89;100.00
24762;BME280;12865;51.934;10.330;2023-05-02T07:16:23;99546.34;;;10.93;100.00
24762;BME280;12865;51.934;10.330;2023-05-02T07:19:08;99577.72;;;10.71;100.00
24762;BME280;12865;51.934;10.330;2023-05-02T07:21:54;99582.38;;;10.16;100.00
24762;BME280;12865;51.934;10.330;2023-05-02T07:24:40;99592.25;;;9.93;100.00
24762;BME280;12865;51.934;10.330;2023-05-02T07:27:26;99589.81;;;9.58;100.00
24762;BME280;12865;51.934;10.330;2023-05-02T07:30:12;99597.91;;;9.57;100.00
24762;BME280;12865;51.934;10.330;2023-05-02T07:32:57;99603.88;;;9.38;100.00
24762;BME280;12865;51.934;10.330;2023-05-02T07:35:43;99607.13;;;9.41;100.00
24762;BME280;12865;51.934;10.330;2023-05-02T07:38:29;99622.38;;;9.51;100.00
24762;BME280;12865;51.934;10.330;2023-05-02T07:41:15;99627.34;;;9.22;100.00
24762;BME280;12865;51.934;10.330;2023-05-02T07:44:01;99637.75;;;9.25;100.00
24762;BME280;12865;51.934;10.330;2023-05-02T07:46:46;99646.31;;;9.06;100.00
24762;BME280;12865;51.934;10.330;2023-05-02T07:49:32;99644.41;;;9.08;100.00
24762;BME280;12865;51.934;10.330;2023-05-02T07:52:18;99641.47;;;9.11;100.00
24762;BME280;12865;51.934;10.330;2023-05-02T07:55:04;99647.28;;;8.94;100.00
24762;BME280;12865;51.934;10.330;2023-05-02T07:57:51;99649.47;;;9.00;100.00
24762;BME280;12865;51.934;10.330;2023-05-02T08:00:37;99650.44;;;9.10;100.00
24762;BME280;12865;51.934;10.330;2023-05-02T08:03:23;99662.75;;;8.89;100.00
24762;BME280;12865;51.934;10.330;2023-05-02T08:06:09;99665.03;;;8.93;100.00
24762;BME280;12865;51.934;10.330;2023-05-02T08:08:55;99658.66;;;9.07;100.00
24762;BME280;12865;51.934;10.330;2023-05-02T08:11:40;99666.63;;;9.07;100.00
24762;BME280;12865;51.934;10.330;2023-05-02T08:14:26;99678.84;;;9.10;100.00
24762;BME280;12865;51.934;10.330;2023-05-02T08:17:12;99680.44;;;9.23;100.00
24762;BME280;12865;51.934;10.330;2023-05-02T08:19:58;99680.44;;;9.23;100.00
24762;BME280;12865;51.934;10.330;2023-05-02T08:22:43;99686.94;;;9.08;100.00
24762;BME280;12865;51.934;10.330;2023-05-02T08:25:29;99684.78;;;9.13;100.00
24762;BME280;12865;51.934;10.330;2023-05-02T08:28:15;99689.97;;;9.15;100.00
24762;BME280;12865;51.934;10.330;2023-05-02T08:31:01;99693.00;;;9.21;100.00
24762;BME280;12865;51.934;10.330;2023-05-02T08:33:46;99704.38;;;9.23;100.00
24762;BME280;12865;51.934;10.330;2023-05-02T08:36:32;99708.97;;;9.55;100.00
24762;BME280;12865;51.934;10.330;2023-05-02T08:39:18;99708.00;;;9.56;100.00
24762;BME280;12865;51.934;10.330;2023-05-02T08:42:07;99712.59;;;9.54;100.00
24762;BME280;12865;51.934;10.330;2023-05-02T08:44:52;99721.09;;;9.59;100.00
24762;BME280;12865;51.934;10.330;2023-05-02T08:47:39;99722.28;;;9.55;100.00
24762;BME280;12865;51.934;10.330;2023-05-02T08:50:25;99730.66;;;9.50;100.00
24762;BME280;12865;51.934;10.330;2023-05-02T08:55:40;99740.19;;;9.41;100.00
24762;BME280;12865;51.934;10.330;2023-05-02T08:58:26;99750.25;;;9.38;100.00
24762;BME280;12865;51.934;10.330;2023-05-02T09:01:14;99747.00;;;9.45;100.00
24762;BME280;12865;51.934;10.330;2023-05-02T09:04:01;99757.13;;;9.29;100.00
24762;BME280;12865;51.934;10.330;2023-05-02T09:06:47;99761.47;;;9.41;100.00
24762;BME280;12865;51.934;10.330;2023-05-02T09:09:33;99760.16;;;9.47;100.00
24762;BME280;12865;51.934;10.330;2023-05-02T09:12:24;99768.72;;;9.39;100.00
24762;BME280;12865;51.934;10.330;2023-05-02T09:15:15;99775.53;;;9.43;100.00
24762;BME280;12865;51.934;10.330;2023-05-02T09:18:01;99777.59;;;9.51;100.00
24762;BME280;12865;51.934;10.330;2023-05-02T09:20:47;99776.47;;;9.31;100.00
24762;BME280;12865;51.934;10.330;2023-05-02T09:23:41;99784.34;;;9.55;100.00
24762;BME280;12865;51.934;10.330;2023-05-02T09:26:28;99790.00;;;9.39;100.00
24762;BME280;12865;51.934;10.330;2023-05-02T09:29:18;99792.06;;;9.36;100.00
24762;BME280;12865;51.934;10.330;2023-05-02T09:32:05;99797.03;;;9.40;100.00
24762;BME280;12865;51.934;10.330;2023-05-02T09:35:04;99805.28;;;9.49;100.00
24762;BME280;12865;51.934;10.330;2023-05-02T09:37:55;99805.75;;;9.54;100.00
24762;BME280;12865;51.934;10.330;2023-05-02T09:40:52;99812.31;;;9.50;100.00
24762;BME280;12865;51.934;10.330;2023-05-02T09:43:40;99818.31;;;9.40;100.00
24762;BME280;12865;51.934;10.330;2023-05-02T09:46:38;99817.38;;;9.41;100.00
24762;BME280;12865;51.934;10.330;2023-05-02T09:49:54;99810.13;;;9.43;100.00
24762;BME280;12865;51.934;10.330;2023-05-02T09:52:40;99831.94;;;9.60;100.00
24762;BME280;12865;51.934;10.330;2023-05-02T09:55:25;99822.47;;;9.56;100.00
24762;BME280;12865;51.934;10.330;2023-05-02T09:58:21;99840.63;;;9.62;100.00
24762;BME280;12865;51.934;10.330;2023-05-02T10:01:13;99836.53;;;9.58;100.00
24762;BME280;12865;51.934;10.330;2023-05-02T10:03:59;99842.44;;;9.50;100.00
24762;BME280;12865;51.934;10.330;2023-05-02T10:06:45;99844.47;;;9.46;100.00
24762;BME280;12865;51.934;10.330;2023-05-02T10:09:34;99841.44;;;9.40;100.00
24762;BME280;12865;51.934;10.330;2023-05-02T10:12:25;99850.03;;;9.43;100.00
24762;BME280;12865;51.934;10.330;2023-05-02T10:15:13;99858.09;;;9.66;100.00
24762;BME280;12865;51.934;10.330;2023-05-02T10:18:06;99856.88;;;9.70;100.00
24762;BME280;12865;51.934;10.330;2023-05-02T10:20:57;99854.91;;;9.61;100.00
24762;BME280;12865;51.934;10.330;2023-05-02T10:23:43;99851.31;;;9.73;100.00
24762;BME280;12865;51.934;10.330;2023-05-02T10:26:29;99852.28;;;9.72;100.00
24762;BME280;12865;51.934;10.330;2023-05-02T10:29:15;99854.47;;;9.89;100.00
24762;BME280;12865;51.934;10.330;2023-05-02T10:32:02;99857.22;;;9.76;100.00
24762;BME280;12865;51.934;10.330;2023-05-02T10:34:49;99869.69;;;9.65;100.00
24762;BME280;12865;51.934;10.330;2023-05-02T10:37:37;99864.09;;;9.45;100.00
24762;BME280;12865;51.934;10.330;2023-05-02T10:40:24;99876.09;;;9.62;100.00
24762;BME280;12865;51.934;10.330;2023-05-02T10:43:14;99871.88;;;9.82;100.00
24762;BME280;12865;51.934;10.330;2023-05-02T10:46:00;99872.34;;;9.65;100.00
24762;BME280;12865;51.934;10.330;2023-05-02T10:51:45;99878.63;;;9.53;100.00
24762;BME280;12865;51.934;10.330;2023-05-02T10:54:31;99882.72;;;9.57;100.00
24762;BME280;12865;51.934;10.330;2023-05-02T10:57:17;99879.59;;;9.52;100.00
24762;BME280;12865;51.934;10.330;2023-05-02T11:00:22;99880.66;;;9.60;100.00
24762;BME280;12865;51.934;10.330;2023-05-02T11:03:07;99880.22;;;9.66;100.00
24762;BME280;12865;51.934;10.330;2023-05-02T11:06:03;99881.41;;;9.62;100.00
24762;BME280;12865;51.934;10.330;2023-05-02T11:08:50;99888.06;;;9.68;100.00
24762;BME280;12865;51.934;10.330;2023-05-02T11:11:43;99889.56;;;9.72;100.00
24762;BME280;12865;51.934;10.330;2023-05-02T11:17:24;99890.44;;;9.49;100.00
24762;BME280;12865;51.934;10.330;2023-05-02T11:26:19;99897.44;;;9.38;100.00
24762;BME280;12865;51.934;10.330;2023-05-02T11:29:06;99907.34;;;9.71;99.88
24762;BME280;12865;51.934;10.330;2023-05-02T11:31:52;99905.25;;;9.53;100.00
24762;BME280;12865;51.934;10.330;2023-05-02T11:34:40;99908.09;;;9.38;100.00
24762;BME280;12865;51.934;10.330;2023-05-02T11:37:26;99908.00;;;9.51;100.00
24762;BME280;12865;51.934;10.330;2023-05-02T11:40:12;99919.25;;;9.20;100.00
24762;BME280;12865;51.934;10.330;2023-05-02T11:42:59;99915.97;;;9.16;100.00
24762;BME280;12865;51.934;10.330;2023-05-02T11:45:45;99920.44;;;9.16;100.00
24762;BME280;12865;51.934;10.330;2023-05-02T11:48:31;99931.53;;;9.10;100.00
24762;BME280;12865;51.934;10.330;2023-05-02T11:51:21;99930.63;;;9.22;100.00
24762;BME280;12865;51.934;10.330;2023-05-02T11:54:08;99933.66;;;9.17;100.00
24762;BME280;12865;51.934;10.330;2023-05-02T11:56:54;99928.81;;;9.22;99.16
24762;BME280;12865;51.934;10.330;2023-05-02T11:59:54;99935.72;;;9.01;100.00
24762;BME280;12865;51.934;10.330;2023-05-02T12:02:45;99931.66;;;9.08;98.89
24762;BME280;12865;51.934;10.330;2023-05-02T12:05:34;99938.97;;;9.17;99.81
24762;BME280;12865;51.934;10.330;2023-05-02T12:08:25;99935.44;;;9.17;98.42
24762;BME280;12865;51.934;10.330;2023-05-02T12:11:15;99941.06;;;9.25;98.57
24762;BME280;12865;51.934;10.330;2023-05-02T12:14:01;99941.69;;;9.39;98.79
24762;BME280;12865;51.934;10.330;2023-05-02T12:16:48;99942.63;;;9.51;98.20
24762;BME280;12865;51.934;10.330;2023-05-02T12:19:33;99944.03;;;9.20;98.56
24762;BME280;12865;51.934;10.330;2023-05-02T12:22:22;99950.59;;;9.27;98.78
24762;BME280;12865;51.934;10.330;2023-05-02T12:25:08;99950.81;;;9.48;96.70
24762;BME280;12865;51.934;10.330;2023-05-02T12:28:01;99954.81;;;9.54;95.24
24762;BME280;12865;51.934;10.330;2023-05-02T12:30:48;99956.81;;;9.63;94.13
24762;BME280;12865;51.934;10.330;2023-05-02T12:33:41;99960.94;;;9.67;93.32
24762;BME280;12865;51.934;10.330;2023-05-02T12:36:28;99951.00;;;9.69;92.87
24762;BME280;12865;51.934;10.330;2023-05-02T12:39:13;99952.78;;;10.03;92.68
24762;BME280;12865;51.934;10.330;2023-05-02T12:41:59;99964.00;;;10.19;90.15
24762;BME280;12865;51.934;10.330;2023-05-02T12:44:46;99963.19;;;9.95;90.47
24762;BME280;12865;51.934;10.330;2023-05-02T12:47:43;99971.31;;;9.94;91.16
24762;BME280;12865;51.934;10.330;2023-05-02T12:50:37;99972.88;;;9.96;91.32
24762;BME280;12865;51.934;10.330;2023-05-02T12:53:42;99979.06;;;9.97;91.03
24762;BME280;12865;51.934;10.330;2023-05-02T12:56:29;99972.75;;;9.98;92.24
24762;BME280;12865;51.934;10.330;2023-05-02T13:02:10;99982.91;;;10.28;87.13
24762;BME280;12865;51.934;10.330;2023-05-02T13:04:56;99989.13;;;10.04;86.83
24762;BME280;12865;51.934;10.330;2023-05-02T13:07:42;99987.88;;;9.86;88.96
24762;BME280;12865;51.934;10.330;2023-05-02T13:10:27;99989.34;;;9.90;89.34
24762;BME280;12865;51.934;10.330;2023-05-02T13:13:13;99991.06;;;10.02;88.27
24762;BME280;12865;51.934;10.330;2023-05-02T13:16:00;99990.59;;;10.08;89.21
24762;BME280;12865;51.934;10.330;2023-05-02T13:18:46;99991.50;;;10.20;87.02
24762;BME280;12865;51.934;10.330;2023-05-02T13:21:31;99999.09;;;10.13;85.17
24762;BME280;12865;51.934;10.330;2023-05-02T13:24:17;99994.22;;;10.07;87.10
24762;BME280;12865;51.934;10.330;2023-05-02T13:27:03;100001.84;;;10.01;87.58
24762;BME280;12865;51.934;10.330;2023-05-02T13:29:49;100013.16;;;10.15;88.64
24762;BME280;12865;51.934;10.330;2023-05-02T13:32:35;100007.31;;;10.10;86.10
24762;BME280;12865;51.934;10.330;2023-05-02T13:35:21;100014.75;;;10.18;85.21
24762;BME280;12865;51.934;10.330;2023-05-02T13:38:06;100012.63;;;10.10;84.21
24762;BME280;12865;51.934;10.330;2023-05-02T13:40:52;100012.53;;;10.12;83.67
24762;BME280;12865;51.934;10.330;2023-05-02T13:43:38;100009.38;;;10.07;84.33
24762;BME280;12865;51.934;10.330;2023-05-02T13:46:25;100020.50;;;10.01;85.14
24762;BME280;12865;51.934;10.330;2023-05-02T13:49:11;100011.59;;;9.89;85.28
24762;BME280;12865;51.934;10.330;2023-05-02T13:51:56;100013.09;;;10.04;84.95
24762;BME280;12865;51.934;10.330;2023-05-02T13:54:42;100011.53;;;10.02;86.64
24762;BME280;12865;51.934;10.330;2023-05-02T13:57:28;100016.25;;;10.09;85.36
24762;BME280;12865;51.934;10.330;2023-05-02T14:00:13;100011.78;;;10.10;85.22
24762;BME280;12865;51.934;10.330;2023-05-02T14:02:59;100017.63;;;10.15;86.10
24762;BME280;12865;51.934;10.330;2023-05-02T14:05:45;100017.63;;;10.15;84.10
24762;BME280;12865;51.934;10.330;2023-05-02T14:08:31;100013.03;;;10.17;83.71
24762;BME280;12865;51.934;10.330;2023-05-02T14:11:16;100022.53;;;10.32;85.14
24762;BME280;12865;51.934;10.330;2023-05-02T14:14:02;100026.81;;;10.11;85.38
24762;BME280;12865;51.934;10.330;2023-05-02T14:16:47;100021.66;;;10.20;85.46
24762;BME280;12865;51.934;10.330;2023-05-02T14:19:33;100030.25;;;10.24;82.49
24762;BME280;12865;51.934;10.330;2023-05-02T14:22:19;100028.34;;;10.02;82.19
24762;BME280;12865;51.934;10.330;2023-05-02T14:25:05;100030.56;;;10.08;81.17
24762;BME280;12865;51.934;10.330;2023-05-02T14:27:51;100028.28;;;10.15;82.86
24762;BME280;12865;51.934;10.330;2023-05-02T14:30:36;100034.34;;;10.17;79.78
24762;BME280;12865;51.934;10.330;2023-05-02T14:33:22;100036.81;;;10.20;80.28
24762;BME280;12865;51.934;10.330;2023-05-02T14:36:08;100041.06;;;10.45;80.38
24762;BME280;12865;51.934;10.330;2023-05-02T14:38:53;100037.56;;;10.44;78.41
24762;BME280;12865;51.934;10.330;2023-05-02T14:41:39;100035.91;;;10.77;78.67
24762;BME280;12865;51.934;10.330;2023-05-02T14:44:25;100035.31;;;10.84;75.83
24762;BME280;12865;51.934;10.330;2023-05-02T14:47:10;100036.00;;;10.86;75.50
24762;BME280;12865;51.934;10.330;2023-05-02T14:49:56;100041.22;;;10.88;72.79
24762;BME280;12865;51.934;10.330;2023-05-02T14:52:42;100039.06;;;10.93;73.30
24762;BME280;12865;51.934;10.330;2023-05-02T14:57:58;100037.97;;;10.73;72.16
24762;BME280;12865;51.934;10.330;2023-05-02T15:00:43;100040.84;;;11.15;71.67
24762;BME280;12865;51.934;10.330;2023-05-02T15:03:29;100044.09;;;11.40;68.08
24762;BME280;12865;51.934;10.330;2023-05-02T15:06:15;100048.31;;;11.43;67.25